createdAt,value
2018-03-21T00:00:22.738Z,5.23
2018-03-21T00:02:56.110Z,4.93
2018-03-21T00:05:30.841Z,5.10
2018-03-21T00:08:14.908Z,5.17
2018-03-21T00:10:44.808Z,4.93
2018-03-21T00:13:15.225Z,4.77
2018-03-21T00:15:46.779Z,5.60
2018-03-21T00:18:22.588Z,5.43
2018-03-21T00:20:52.640Z,5.40
2018-03-21T00:23:34.731Z,5.53
2018-03-21T00:26:12.251Z,5.73
2018-03-21T00:28:43.718Z,5.97
2018-03-21T00:31:23.324Z,5.30
2018-03-21T00:33:54.252Z,5.50
2018-03-21T00:36:30.626Z,5.33
2018-03-21T00:39:00.933Z,5.50
2018-03-21T00:41:35.429Z,5.50
2018-03-21T00:44:15.386Z,5.73
2018-03-21T00:46:47.736Z,5.27
2018-03-21T00:49:17.960Z,5.93
2018-03-21T00:51:47.490Z,5.50
2018-03-21T00:54:18.828Z,6.03
2018-03-21T00:56:48.335Z,5.70
2018-03-21T00:59:18.222Z,5.93
2018-03-21T01:01:47.722Z,5.40
2018-03-21T01:04:19.790Z,5.83
2018-03-21T01:06:52.600Z,5.57
2018-03-21T01:09:26.368Z,5.40
2018-03-21T01:11:59.202Z,5.93
2018-03-21T01:14:29.739Z,5.13
2018-03-21T01:16:59.907Z,6.20
2018-03-21T01:19:30.016Z,5.40
2018-03-21T01:21:59.715Z,5.90
2018-03-21T01:24:33.310Z,5.30
2018-03-21T01:27:09.080Z,5.43
2018-03-21T01:29:44.259Z,5.30
2018-03-21T01:32:22.200Z,5.10
2018-03-21T01:34:53.406Z,5.23
2018-03-21T01:37:29.811Z,5.00
2018-03-21T01:40:35.963Z,5.17
2018-03-21T01:43:06.533Z,5.70
2018-03-21T01:45:36.735Z,5.93
2018-03-21T01:48:08.862Z,5.00
2018-03-21T01:50:39.313Z,5.00
2018-03-21T01:53:11.485Z,6.13
2018-03-21T01:58:52.280Z,5.10
2018-03-21T02:01:22.066Z,5.27
2018-03-21T02:03:51.561Z,5.87
2018-03-21T02:06:26.562Z,6.50
2018-03-21T02:09:00.792Z,6.03
2018-03-21T02:11:52.955Z,5.27
2018-03-21T02:14:24.882Z,5.60
2018-03-21T02:16:54.617Z,6.03
2018-03-21T02:19:24.130Z,5.73
2018-03-21T02:21:53.673Z,5.57
2018-03-21T02:24:24.569Z,5.90
2018-03-21T02:26:54.378Z,5.93
2018-03-21T02:29:23.938Z,5.77
2018-03-21T02:31:53.415Z,5.40
2018-03-21T02:34:23.443Z,6.57
2018-03-21T02:36:53.657Z,6.30
2018-03-21T02:39:23.343Z,6.00
2018-03-21T02:41:55.036Z,5.93
2018-03-21T02:44:26.348Z,5.80
2018-03-21T02:46:57.749Z,5.63
2018-03-21T02:49:31.532Z,5.67
2018-03-21T02:52:05.095Z,5.40
2018-03-21T02:54:40.002Z,6.10
2018-03-21T02:57:12.926Z,5.77
2018-03-21T02:59:47.481Z,5.80
2018-03-21T03:02:20.883Z,5.97
2018-03-21T03:04:57.036Z,5.43
2018-03-21T03:07:31.361Z,5.20
2018-03-21T03:10:00.867Z,5.50
2018-03-21T03:12:53.416Z,5.23
2018-03-21T03:15:22.946Z,5.87
2018-03-21T03:17:52.463Z,5.83
2018-03-21T03:20:22.826Z,5.40
2018-03-21T03:22:52.831Z,5.90
2018-03-21T03:25:23.049Z,5.50
2018-03-21T03:27:55.706Z,5.67
2018-03-21T03:30:27.604Z,5.80
2018-03-21T03:33:01.696Z,5.17
2018-03-21T03:35:36.134Z,5.00
2018-03-21T03:38:08.202Z,5.13
2018-03-21T03:40:43.012Z,5.53
2018-03-21T03:43:14.208Z,5.50
2018-03-21T03:45:50.876Z,5.10
2018-03-21T03:48:24.047Z,6.10
2018-03-21T03:50:55.651Z,5.63
2018-03-21T03:53:29.713Z,6.33
2018-03-21T03:56:00.613Z,6.30
2018-03-21T03:58:47.042Z,6.20
2018-03-21T04:01:16.848Z,5.47
2018-03-21T04:03:46.368Z,6.33
2018-03-21T04:06:16.988Z,6.73
2018-03-21T04:08:47.376Z,6.00
2018-03-21T04:11:16.907Z,6.00
2018-03-21T04:13:52.106Z,6.70
2018-03-21T04:16:22.105Z,6.73
2018-03-21T04:18:52.013Z,6.27
2018-03-21T04:21:21.628Z,7.50
2018-03-21T04:23:51.273Z,7.30
2018-03-21T04:26:21.498Z,6.70
2018-03-21T04:28:51.617Z,6.73
2018-03-21T04:31:23.642Z,6.77
2018-03-21T04:33:58.691Z,6.90
2018-03-21T04:36:32.435Z,7.10
2018-03-21T04:39:04.761Z,7.20
2018-03-21T04:41:36.434Z,7.60
2018-03-21T04:44:11.430Z,7.00
2018-03-21T04:46:46.102Z,7.13
2018-03-21T04:49:19.975Z,8.47
2018-03-21T04:51:57.890Z,7.43
2018-03-21T04:54:29.820Z,7.43
2018-03-21T04:57:16.982Z,7.03
2018-03-21T04:59:46.985Z,7.67
2018-03-21T05:02:18.378Z,7.43
2018-03-21T05:04:48.313Z,6.90
2018-03-21T05:07:17.821Z,7.03
2018-03-21T05:09:50.339Z,7.43
2018-03-21T05:12:28.436Z,7.47
2018-03-21T05:14:59.565Z,7.97
2018-03-21T05:17:33.026Z,7.43
2018-03-21T05:20:05.249Z,7.13
2018-03-21T05:22:36.292Z,7.10
2018-03-21T05:25:14.052Z,7.27
2018-03-21T05:27:47.190Z,6.90
2018-03-21T05:30:20.732Z,8.10
2018-03-21T05:32:52.212Z,6.93
2018-03-21T05:35:21.877Z,7.60
2018-03-21T05:37:51.574Z,6.73
2018-03-21T05:40:21.098Z,7.63
2018-03-21T05:42:52.003Z,6.50
2018-03-21T05:45:21.530Z,7.27
2018-03-21T05:47:51.443Z,6.60
2018-03-21T05:50:21.232Z,7.10
2018-03-21T05:52:53.800Z,7.47
2018-03-21T05:55:25.131Z,7.60
2018-03-21T05:57:56.666Z,7.57
2018-03-21T06:00:27.679Z,7.57
2018-03-21T06:03:00.704Z,7.07
2018-03-21T06:05:41.651Z,7.43
2018-03-21T06:08:11.152Z,8.13
2018-03-21T06:10:41.867Z,7.63
2018-03-21T06:13:12.637Z,7.73
2018-03-21T06:15:44.005Z,8.53
2018-03-21T06:18:17.072Z,8.67
2018-03-21T06:20:46.595Z,9.73
2018-03-21T06:23:16.544Z,8.90
2018-03-21T06:25:46.692Z,8.67
2018-03-21T06:28:17.523Z,10.27
2018-03-21T06:30:48.820Z,9.73
2018-03-21T06:33:18.330Z,8.57
2018-03-21T06:35:53.057Z,9.63
2018-03-21T06:38:25.018Z,9.43
2018-03-21T06:40:59.479Z,9.60
2018-03-21T06:43:50.920Z,10.17
2018-03-21T06:46:20.820Z,9.93
2018-03-21T06:48:50.365Z,9.23
2018-03-21T06:51:22.315Z,9.50
2018-03-21T06:53:52.260Z,10.63
2018-03-21T06:56:21.767Z,10.70
2018-03-21T06:58:52.501Z,9.37
2018-03-21T07:01:25.901Z,10.53
2018-03-21T07:03:59.787Z,10.33
2018-03-21T07:06:33.757Z,9.87
2018-03-21T07:09:05.610Z,10.23
2018-03-21T07:11:41.229Z,10.27
2018-03-21T07:14:18.117Z,10.93
2018-03-21T07:16:50.039Z,10.93
2018-03-21T07:19:21.823Z,11.23
2018-03-21T07:21:54.242Z,12.00
2018-03-21T07:24:25.594Z,13.87
2018-03-21T07:26:55.193Z,13.83
2018-03-21T07:29:25.134Z,13.93
2018-03-21T07:31:54.903Z,14.87
2018-03-21T07:34:24.404Z,14.13
2018-03-21T07:36:53.898Z,14.33
2018-03-21T07:39:23.438Z,14.83
2018-03-21T07:41:53.649Z,14.43
2018-03-21T07:44:24.058Z,14.70
2018-03-21T07:46:58.251Z,14.27
2018-03-21T07:49:32.609Z,14.57
2018-03-21T07:52:05.970Z,13.63
2018-03-21T07:54:35.737Z,15.50
2018-03-21T07:57:07.840Z,16.30
2018-03-21T07:59:45.240Z,13.50
2018-03-21T08:02:18.333Z,14.80
2018-03-21T08:04:55.536Z,15.20
2018-03-21T08:07:25.960Z,15.70
2018-03-21T08:09:57.105Z,16.80
2018-03-21T08:12:32.458Z,17.93
2018-03-21T08:15:03.941Z,18.53
2018-03-21T08:17:39.983Z,19.03
2018-03-21T08:20:10.506Z,17.57
2018-03-21T08:22:47.499Z,17.73
2018-03-21T08:25:17.992Z,19.03
2018-03-21T08:27:48.674Z,18.93
2018-03-21T08:30:18.452Z,17.70
2018-03-21T08:32:47.967Z,19.20
2018-03-21T08:35:17.468Z,18.43
2018-03-21T08:37:46.981Z,18.97
2018-03-21T08:40:16.699Z,18.17
2018-03-21T08:42:46.950Z,17.57
2018-03-21T08:45:17.024Z,18.30
2018-03-21T08:47:50.722Z,17.07
2018-03-21T08:50:25.116Z,18.23
2018-03-21T08:52:55.038Z,16.13
2018-03-21T08:55:24.550Z,18.03
2018-03-21T08:57:55.131Z,17.23
2018-03-21T09:00:25.932Z,16.83
2018-03-21T09:02:55.426Z,16.13
2018-03-21T09:05:25.073Z,16.80
2018-03-21T09:07:55.120Z,16.33
2018-03-21T09:10:24.891Z,16.30
2018-03-21T09:12:56.937Z,16.33
2018-03-21T09:15:52.732Z,16.37
2018-03-21T09:18:22.501Z,15.27
2018-03-21T09:20:52.229Z,16.03
2018-03-21T09:23:21.730Z,15.40
2018-03-21T09:25:51.257Z,14.43
2018-03-21T09:28:21.000Z,14.47
2018-03-21T09:30:51.644Z,15.40
2018-03-21T09:33:31.171Z,14.90
2018-03-21T09:36:03.276Z,14.80
2018-03-21T09:38:34.761Z,14.00
2018-03-21T09:41:08.089Z,14.87
2018-03-21T09:43:42.255Z,14.90
2018-03-21T09:46:14.979Z,14.80
2018-03-21T09:48:45.001Z,13.00
2018-03-21T09:51:18.243Z,11.80
2018-03-21T09:53:51.295Z,12.00
2018-03-21T09:56:23.774Z,12.03
2018-03-21T09:58:55.068Z,12.70
2018-03-21T10:01:31.769Z,11.70
2018-03-21T10:04:02.092Z,8.60
2018-03-21T10:06:37.078Z,9.30
2018-03-21T10:09:07.760Z,10.03
2018-03-21T10:11:37.653Z,9.97
2018-03-21T10:14:07.532Z,10.17
2018-03-21T10:16:37.053Z,9.67
2018-03-21T10:19:06.626Z,9.10
2018-03-21T10:21:36.655Z,10.10
2018-03-21T10:24:06.879Z,9.73
2018-03-21T10:26:37.923Z,9.00
2018-03-21T10:29:12.940Z,8.57
2018-03-21T10:31:42.809Z,8.60
2018-03-21T10:34:12.388Z,10.00
2018-03-21T10:36:47.055Z,8.70
2018-03-21T10:39:23.823Z,9.00
2018-03-21T10:41:55.500Z,8.53
2018-03-21T10:44:29.686Z,6.87
2018-03-21T10:47:01.843Z,8.23
2018-03-21T10:49:35.463Z,8.83
2018-03-21T10:52:08.677Z,8.50
2018-03-21T10:54:38.186Z,9.17
2018-03-21T10:57:10.006Z,8.20
2018-03-21T10:59:40.120Z,8.13
2018-03-21T11:02:14.377Z,8.03
2018-03-21T11:04:43.901Z,8.17
2018-03-21T11:07:13.398Z,8.60
2018-03-21T11:09:42.902Z,9.07
2018-03-21T11:12:14.786Z,8.90
2018-03-21T11:14:45.575Z,9.80
2018-03-21T11:17:15.546Z,8.60
2018-03-21T11:19:45.046Z,8.93
2018-03-21T11:22:14.589Z,7.67
2018-03-21T11:24:44.624Z,7.00
2018-03-21T11:27:14.156Z,8.00
2018-03-21T11:29:43.770Z,7.47
2018-03-21T11:32:13.633Z,7.30
2018-03-21T11:34:46.076Z,7.60
2018-03-21T11:37:15.833Z,9.03
2018-03-21T11:39:46.963Z,9.03
2018-03-21T11:42:17.413Z,8.77
2018-03-21T11:44:49.296Z,8.90
2018-03-21T11:47:41.337Z,8.70
2018-03-21T11:50:10.851Z,7.90
2018-03-21T11:52:40.361Z,8.47
2018-03-21T11:55:12.547Z,7.80
2018-03-21T11:57:42.045Z,8.10
2018-03-21T12:00:19.290Z,7.83
2018-03-21T12:03:11.071Z,8.40
2018-03-21T12:05:40.947Z,8.10
2018-03-21T12:08:13.824Z,8.00
2018-03-21T12:10:44.211Z,8.20
2018-03-21T12:13:13.705Z,7.97
2018-03-21T12:15:43.206Z,7.73
2018-03-21T12:18:34.631Z,7.30
2018-03-21T12:21:04.156Z,6.83
2018-03-21T12:23:33.929Z,6.37
2018-03-21T12:26:03.497Z,6.83
2018-03-21T12:28:35.438Z,6.73
2018-03-21T12:31:05.479Z,6.80
2018-03-21T12:33:39.446Z,6.87
2018-03-21T12:36:10.170Z,6.60
2018-03-21T12:38:39.980Z,5.83
2018-03-21T12:41:17.356Z,6.70
2018-03-21T12:43:51.734Z,7.70
2018-03-21T12:46:24.323Z,7.53
2018-03-21T12:48:57.635Z,7.80
2018-03-21T12:51:31.620Z,7.20
2018-03-21T12:54:01.142Z,7.10
2018-03-21T12:56:31.705Z,6.27
2018-03-21T12:59:05.561Z,6.27
2018-03-21T13:01:44.224Z,6.17
2018-03-21T13:04:13.911Z,5.83
2018-03-21T13:06:49.354Z,5.83
2018-03-21T13:09:26.324Z,5.73
2018-03-21T13:11:56.302Z,5.63
2018-03-21T13:14:29.715Z,5.67
2018-03-21T13:17:03.926Z,5.97
2018-03-21T13:19:35.431Z,6.43
2018-03-21T13:22:07.978Z,6.10
2018-03-21T13:24:45.841Z,5.13
2018-03-21T13:27:23.139Z,4.63
2018-03-21T13:29:53.766Z,4.70
2018-03-21T13:32:25.489Z,4.27
2018-03-21T13:34:58.378Z,4.07
2018-03-21T13:37:29.881Z,4.73
2018-03-21T13:40:02.066Z,4.20
2018-03-21T13:42:33.100Z,4.03
2018-03-21T13:45:02.597Z,4.70
2018-03-21T13:47:32.112Z,5.07
2018-03-21T13:50:02.129Z,4.70
2018-03-21T13:52:31.642Z,5.03
2018-03-21T13:55:01.133Z,4.90
2018-03-21T13:57:35.687Z,4.77
2018-03-21T14:00:07.646Z,4.53
2018-03-21T14:02:37.159Z,3.90
2018-03-21T14:05:07.421Z,4.10
2018-03-21T14:07:37.307Z,3.80
2018-03-21T14:10:06.807Z,4.27
2018-03-21T14:12:36.406Z,3.70
2018-03-21T14:15:06.737Z,3.53
2018-03-21T14:17:37.694Z,3.60
2018-03-21T14:20:07.195Z,3.60
2018-03-21T14:22:39.406Z,3.50
2018-03-21T14:25:11.907Z,3.90
2018-03-21T14:27:46.241Z,3.53
2018-03-21T14:30:25.583Z,3.87
2018-03-21T14:32:55.095Z,3.83
2018-03-21T14:35:25.434Z,3.70
2018-03-21T14:37:59.994Z,4.50
2018-03-21T14:40:34.135Z,4.40
2018-03-21T14:43:08.003Z,4.73
2018-03-21T14:45:40.810Z,4.63
2018-03-21T14:48:11.973Z,4.50
2018-03-21T14:51:03.156Z,4.27
2018-03-21T14:53:32.674Z,4.57
2018-03-21T14:56:02.177Z,4.57
2018-03-21T14:58:32.148Z,4.43
2018-03-21T15:01:03.092Z,4.33
2018-03-21T15:03:36.086Z,4.27
2018-03-21T15:06:07.173Z,3.83
2018-03-21T15:08:38.145Z,3.83
2018-03-21T15:11:09.084Z,4.50
2018-03-21T15:13:44.625Z,3.90
2018-03-21T15:16:16.731Z,4.30
2018-03-21T15:19:03.761Z,4.40
2018-03-21T15:21:33.627Z,4.00
2018-03-21T15:24:05.585Z,4.07
2018-03-21T15:26:35.765Z,3.63
2018-03-21T15:29:05.466Z,4.47
2018-03-21T15:31:37.131Z,4.40
2018-03-21T15:37:24.541Z,5.13
2018-03-21T15:39:54.488Z,4.90
2018-03-21T15:42:24.004Z,5.07
2018-03-21T15:44:56.118Z,5.20
2018-03-21T15:47:26.244Z,5.03
2018-03-21T15:49:59.236Z,5.03
2018-03-21T15:52:31.994Z,5.27
2018-03-21T15:55:02.149Z,5.57
2018-03-21T15:57:31.671Z,5.20
2018-03-21T16:00:01.558Z,5.07
2018-03-21T16:02:31.045Z,5.27
2018-03-21T16:05:00.888Z,5.90
2018-03-21T16:07:33.283Z,5.17
2018-03-21T16:10:03.573Z,5.17
2018-03-21T16:12:33.067Z,4.93
2018-03-21T16:15:06.772Z,5.73
2018-03-21T16:17:36.629Z,5.57
2018-03-21T16:20:06.896Z,5.20
2018-03-21T16:22:39.339Z,5.63
2018-03-21T16:25:09.262Z,5.33
2018-03-21T16:27:39.644Z,5.37
2018-03-21T16:30:09.868Z,4.80
2018-03-21T16:32:39.362Z,4.63
2018-03-21T16:35:31.964Z,5.07
2018-03-21T16:38:01.480Z,5.20
2018-03-21T16:40:30.981Z,5.27
2018-03-21T16:43:00.472Z,5.07
2018-03-21T16:45:29.986Z,5.23
2018-03-21T16:47:59.499Z,5.40
2018-03-21T16:50:29.096Z,5.40
2018-03-21T16:52:59.846Z,5.73
2018-03-21T16:55:34.446Z,5.30
2018-03-21T16:58:12.741Z,6.40
2018-03-21T17:00:45.382Z,6.50
2018-03-21T17:03:18.918Z,6.17
2018-03-21T17:06:12.618Z,6.43
2018-03-21T17:08:43.676Z,6.00
2018-03-21T17:11:13.708Z,6.47
2018-03-21T17:13:44.043Z,6.50
2018-03-21T17:16:13.560Z,6.77
2018-03-21T17:18:43.082Z,6.53
2018-03-21T17:21:14.067Z,6.40
2018-03-21T17:23:43.566Z,6.60
2018-03-21T17:26:19.831Z,6.53
2018-03-21T17:28:55.699Z,6.77
2018-03-21T17:31:30.121Z,6.93
2018-03-21T17:33:59.658Z,7.57
2018-03-21T17:36:32.702Z,7.90
2018-03-21T17:39:03.240Z,8.23
2018-03-21T17:41:40.111Z,7.70
2018-03-21T17:44:16.162Z,8.30
2018-03-21T17:46:50.300Z,7.73
2018-03-21T17:49:21.219Z,7.63
2018-03-21T17:51:57.147Z,7.87
2018-03-21T17:54:27.272Z,7.87
2018-03-21T17:57:01.740Z,7.97
2018-03-21T17:59:35.671Z,7.97
2018-03-21T18:02:07.874Z,8.17
2018-03-21T18:04:41.858Z,8.37
2018-03-21T18:07:32.374Z,8.20
2018-03-21T18:10:01.883Z,8.43
2018-03-21T18:12:36.569Z,7.67
2018-03-21T18:15:06.302Z,8.43
2018-03-21T18:17:35.858Z,8.53
2018-03-21T18:20:08.476Z,8.03
2018-03-21T18:22:42.994Z,7.57
2018-03-21T18:25:18.075Z,8.70
2018-03-21T18:27:48.206Z,8.30
2018-03-21T18:30:30.367Z,8.23
2018-03-21T18:33:01.862Z,9.13
2018-03-21T18:35:39.186Z,8.27
2018-03-21T18:38:12.847Z,8.43
2018-03-21T18:40:52.434Z,8.77
2018-03-21T18:43:22.025Z,8.30
2018-03-21T18:45:53.648Z,8.83
2018-03-21T18:48:26.145Z,8.27
2018-03-21T18:50:55.651Z,8.30
2018-03-21T18:53:47.936Z,8.00
2018-03-21T18:56:21.002Z,8.43
2018-03-21T18:58:51.603Z,7.77
2018-03-21T19:01:25.286Z,8.53
2018-03-21T19:04:02.096Z,8.00
2018-03-21T19:09:17.718Z,7.70
2018-03-21T19:11:54.317Z,7.87
2018-03-21T19:14:27.604Z,7.57
2018-03-21T19:17:01.034Z,7.67
2018-03-21T19:19:32.163Z,8.03
2018-03-21T19:28:21.244Z,7.60
2018-03-21T19:30:52.327Z,7.80
2018-03-21T19:33:22.978Z,7.70
2018-03-21T19:35:54.795Z,7.93
2018-03-21T19:38:29.542Z,7.47
2018-03-21T19:41:01.835Z,7.33
2018-03-21T19:43:38.378Z,7.87
2018-03-21T19:46:15.589Z,8.20
2018-03-21T19:48:52.294Z,8.20
2018-03-21T19:51:22.520Z,8.87
2018-03-21T19:53:57.355Z,8.77
2018-03-21T19:56:29.491Z,8.70
2018-03-21T19:59:02.379Z,8.87
2018-03-21T20:01:38.163Z,9.13
2018-03-21T20:04:07.694Z,9.67
2018-03-21T20:06:40.053Z,9.50
2018-03-21T20:09:10.308Z,9.20
2018-03-21T20:11:39.825Z,9.53
2018-03-21T20:14:10.889Z,9.23
2018-03-21T20:16:40.398Z,9.87
2018-03-21T20:19:16.692Z,10.37
2018-03-21T20:21:48.069Z,9.90
2018-03-21T20:24:25.034Z,9.83
2018-03-21T20:27:00.065Z,10.13
2018-03-21T20:29:35.530Z,10.83
2018-03-21T20:32:05.638Z,10.00
2018-03-21T20:34:36.678Z,10.17
2018-03-21T20:37:06.787Z,9.93
2018-03-21T20:39:36.360Z,8.90
2018-03-21T20:42:06.214Z,9.40
2018-03-21T20:44:36.244Z,9.90
2018-03-21T20:47:09.387Z,9.97
2018-03-21T20:49:42.798Z,9.87
2018-03-21T20:52:16.995Z,9.67
2018-03-21T20:54:51.546Z,8.90
2018-03-21T20:57:22.194Z,9.70
2018-03-21T20:59:52.628Z,9.33
2018-03-21T21:02:23.495Z,9.03
2018-03-21T21:04:53.031Z,9.23
2018-03-21T21:07:23.152Z,8.63
2018-03-21T21:09:53.844Z,9.20
2018-03-21T21:12:25.628Z,8.60
2018-03-21T21:15:00.411Z,8.47
2018-03-21T21:17:31.966Z,7.53
2018-03-21T21:20:02.234Z,8.57
2018-03-21T21:22:32.925Z,7.77
2018-03-21T21:25:02.766Z,8.27
2018-03-21T21:27:33.642Z,7.60
2018-03-21T21:30:05.107Z,7.00
2018-03-21T21:32:36.929Z,6.83
2018-03-21T21:35:08.899Z,6.60
2018-03-21T21:37:44.658Z,6.70
2018-03-21T21:40:36.516Z,6.93
2018-03-21T21:43:06.020Z,6.33
2018-03-21T21:45:35.701Z,7.07
2018-03-21T21:48:05.218Z,6.80
2018-03-21T21:50:35.131Z,6.83
2018-03-21T21:53:06.193Z,6.90
2018-03-21T21:58:46.398Z,6.87
2018-03-21T22:01:16.871Z,6.97
2018-03-21T22:03:46.372Z,6.23
2018-03-21T22:06:16.219Z,6.67
2018-03-21T22:08:48.145Z,6.10
2018-03-21T22:11:18.501Z,6.90
2018-03-21T22:13:51.003Z,6.80
2018-03-21T22:16:27.738Z,6.43
2018-03-21T22:19:02.769Z,6.80
2018-03-21T22:21:33.168Z,6.50
2018-03-21T22:24:09.519Z,5.80
2018-03-21T22:26:44.590Z,7.20
2018-03-21T22:29:16.060Z,6.97
2018-03-21T22:31:55.804Z,6.37
2018-03-21T22:34:29.149Z,6.77
2018-03-21T22:37:05.886Z,6.63
2018-03-21T22:39:37.713Z,6.60
2018-03-21T22:42:15.799Z,6.37
2018-03-21T22:44:49.861Z,6.77
2018-03-21T22:47:25.105Z,6.40
2018-03-21T22:49:57.394Z,6.00
2018-03-21T22:52:30.574Z,6.30
2018-03-21T22:55:09.001Z,6.47
2018-03-21T22:57:38.510Z,6.07
2018-03-21T23:00:10.625Z,6.77
2018-03-21T23:02:42.964Z,6.37
2018-03-21T23:05:12.456Z,6.23
2018-03-21T23:07:41.959Z,6.20
2018-03-21T23:10:11.820Z,6.17
2018-03-21T23:12:42.475Z,5.87
2018-03-21T23:15:16.281Z,6.00
2018-03-21T23:17:54.462Z,6.47
2018-03-21T23:20:24.098Z,6.10
2018-03-21T23:22:55.036Z,6.03
2018-03-21T23:25:26.785Z,5.80
2018-03-21T23:27:56.883Z,5.70
2018-03-21T23:30:26.388Z,5.60
2018-03-21T23:32:57.126Z,5.80
2018-03-21T23:35:26.753Z,5.37
2018-03-21T23:37:56.975Z,6.00
2018-03-21T23:40:27.933Z,5.50
2018-03-21T23:43:01.081Z,5.40
2018-03-21T23:45:30.576Z,5.50
2018-03-21T23:48:00.117Z,5.50
2018-03-21T23:50:29.619Z,5.07
2018-03-21T23:52:59.126Z,5.20
2018-03-21T23:55:32.867Z,5.00
2018-03-21T23:58:08.841Z,5.67
